Time;durP1;ratioP1;P1;durP2;ratioP2;P2;SDS_P1;SDS_P2;PMS_P1;PMS_P2;Temp;Humidity;BMP_temperature;BMP_pressure;BME280_temperature;BME280_humidity;BME280_pressure;Samples;Min_cycle;Max_cycle;Signal;HPM_P1;HPM_P2
2021/06/25 00:01:13;;;;;;;17.50;11.70;;;15.60;99.90;;;;;;5656129;23;20058;-96
2021/06/25 00:03:39;;;;;;;19.20;11.43;;;15.70;99.90;;;;;;4985721;28;20027;-96
2021/06/25 00:06:10;;;;;;;14.50;10.27;;;15.60;99.90;;;;;;4986472;28;20010;-96
2021/06/25 00:08:37;;;;;;;11.95;8.57;;;15.60;99.90;;;;;;4982251;28;20042;-96
2021/06/25 00:11:22;;;;;;;14.52;9.98;;;15.60;99.90;;;;;;5004280;28;20054;-96
2021/06/25 00:13:57;;;;;;;11.35;8.02;;;15.60;99.90;;;;;;4987191;28;20038;-94
2021/06/25 00:16:24;;;;;;;10.30;6.97;;;15.60;99.90;;;;;;4982767;28;20030;-96
2021/06/25 00:18:50;;;;;;;10.30;6.40;;;15.60;99.90;;;;;;4973129;28;20093;-95
2021/06/25 00:21:16;;;;;;;10.30;6.28;;;15.60;99.90;;;;;;4979136;28;20033;-96
2021/06/25 00:23:42;;;;;;;9.13;6.13;;;15.50;99.90;;;;;;4980626;28;20038;-96
2021/06/25 00:26:08;;;;;;;8.02;5.07;;;15.50;99.90;;;;;;4978579;28;20022;-95
2021/06/25 00:28:34;;;;;;;6.75;5.10;;;15.50;99.90;;;;;;4983361;28;20055;-95
2021/06/25 00:31:00;;;;;;;6.72;4.65;;;15.50;99.90;;;;;;4993719;28;20026;-96
2021/06/25 00:33:28;;;;;;;5.72;4.38;;;15.50;99.90;;;;;;5007544;28;20082;-95
2021/06/25 00:35:53;;;;;;;5.00;3.65;;;15.50;99.90;;;;;;4991601;28;20026;-95
2021/06/25 00:38:21;;;;;;;5.18;3.80;;;15.50;99.90;;;;;;4972005;28;20046;-95
2021/06/25 00:40:47;;;;;;;5.45;3.83;;;15.40;99.90;;;;;;4960211;28;20057;-96
2021/06/25 00:43:18;;;;;;;3.92;3.20;;;15.40;99.90;;;;;;4983146;28;20027;-95
2021/06/25 00:45:45;;;;;;;4.05;2.92;;;15.40;99.90;;;;;;4967725;29;20090;-95
2021/06/25 00:48:14;;;;;;;2.92;2.55;;;15.30;99.90;;;;;;4976887;28;20049;-95
2021/06/25 00:50:43;;;;;;;3.25;2.80;;;15.30;99.90;;;;;;4955186;29;20031;-95
2021/06/25 01:07:10;;;;;;;3.03;1.67;;;15.20;99.90;;;;;;5286756;23;20046;-96
2021/06/25 03:37:44;;;;;;;;;;;13.60;99.90;;;;;;4995014;28;20038;-95
2021/06/25 03:40:14;;;;;;;2.40;0.60;;;13.60;99.90;;;;;;4979433;28;19910;-95
2021/06/25 03:42:41;;;;;;;1.70;0.57;;;13.50;99.90;;;;;;4983839;28;20026;-94
2021/06/25 03:45:14;;;;;;;0.38;0.30;;;13.40;99.90;;;;;;4985167;28;20030;-95
2021/06/25 03:47:56;;;;;;;0.95;0.60;;;13.40;99.90;;;;;;4990912;28;20062;-95
2021/06/25 03:50:27;;;;;;;0.60;0.60;;;13.30;99.90;;;;;;5010255;28;20472;-95
2021/06/25 03:53:15;;;;;;;0.63;0.35;;;13.30;99.90;;;;;;4996307;28;20105;-96
2021/06/25 03:58:28;;;;;;;1.02;0.40;;;13.30;99.90;;;;;;5008393;28;20065;-96
2021/06/25 04:00:56;;;;;;;0.40;0.40;;;13.30;99.90;;;;;;4991909;28;20030;-95
2021/06/25 04:03:22;;;;;;;0.98;0.40;;;13.30;99.90;;;;;;4989753;28;20030;-96
2021/06/25 04:05:50;;;;;;;0.30;0.30;;;13.30;99.90;;;;;;4987367;28;20023;-96
2021/06/25 04:08:18;;;;;;;0.85;0.52;;;13.30;99.90;;;;;;4986542;28;20039;-96
2021/06/25 04:10:44;;;;;;;0.80;0.50;;;13.30;99.90;;;;;;4984080;28;20023;-96
2021/06/25 04:13:13;;;;;;;1.90;0.40;;;13.20;99.90;;;;;;4986219;28;20027;-96
2021/06/25 04:15:40;;;;;;;0.88;0.30;;;13.30;99.90;;;;;;5002526;28;20061;-95
2021/06/25 04:18:11;;;;;;;1.25;0.43;;;13.30;99.90;;;;;;4983191;28;20387;-95
2021/06/25 04:20:37;;;;;;;1.15;0.65;;;13.30;99.90;;;;;;4983230;28;20291;-96
2021/06/25 04:23:03;;;;;;;1.90;0.47;;;13.20;99.90;;;;;;4981138;28;20023;-94
2021/06/25 04:25:29;;;;;;;2.08;0.40;;;13.20;99.90;;;;;;4986300;28;20031;-95
2021/06/25 04:28:01;;;;;;;0.85;0.47;;;13.20;99.90;;;;;;4984324;28;20094;-96
2021/06/25 04:30:27;;;;;;;2.13;0.75;;;13.10;99.90;;;;;;4986647;28;20038;-95
2021/06/25 04:32:53;;;;;;;1.60;0.40;;;13.10;99.90;;;;;;4988281;28;20061;-96
2021/06/25 04:35:49;;;;;;;0.35;0.35;;;13.10;99.90;;;;;;4991682;28;20022;-96
2021/06/25 04:38:19;;;;;;;0.40;0.40;;;13.10;99.90;;;;;;5012304;28;20041;-96
2021/06/25 04:40:51;;;;;;;0.52;0.30;;;13.10;99.90;;;;;;4974152;28;20440;-96
2021/06/25 04:43:20;;;;;;;0.57;0.45;;;13.10;99.90;;;;;;4989925;28;20533;-95
2021/06/25 04:45:46;;;;;;;0.73;0.70;;;13.10;99.90;;;;;;4994467;28;20472;-96
2021/06/25 04:48:14;;;;;;;0.32;0.32;;;13.00;99.90;;;;;;4993770;28;20073;-95
2021/06/25 04:50:41;;;;;;;1.73;0.40;;;13.00;99.90;;;;;;4988642;28;20026;-95
2021/06/25 04:53:07;;;;;;;0.50;0.50;;;13.00;99.90;;;;;;4990400;28;20123;-96
2021/06/25 04:55:43;;;;;;;0.60;0.38;;;13.00;99.90;;;;;;4992142;28;20090;-96
2021/06/25 04:58:14;;;;;;;0.70;0.45;;;13.00;99.90;;;;;;4987300;28;20038;-95
2021/06/25 05:00:42;;;;;;;0.77;0.40;;;13.10;99.90;;;;;;4989360;28;20023;-96
2021/06/25 05:03:08;;;;;;;0.95;0.43;;;13.10;99.90;;;;;;4986282;28;20058;-96
2021/06/25 05:05:40;;;;;;;2.65;0.32;;;13.10;99.90;;;;;;4989269;28;20057;-96
2021/06/25 05:08:08;;;;;;;2.40;0.40;;;13.10;99.90;;;;;;5010680;28;20061;-96
2021/06/25 05:10:34;;;;;;;0.20;0.20;;;13.00;99.90;;;;;;4990483;28;20550;-96
2021/06/25 05:13:01;;;;;;;0.28;0.28;;;13.00;99.90;;;;;;4985705;28;20030;-96
2021/06/25 05:15:27;;;;;;;0.82;0.43;;;13.00;99.90;;;;;;4986267;28;20070;-94
2021/06/25 05:17:53;;;;;;;0.73;0.30;;;13.00;99.90;;;;;;4986375;28;20030;-95
2021/06/25 05:20:18;;;;;;;2.60;0.30;;;13.00;99.90;;;;;;4986876;28;20109;-96
2021/06/25 05:22:45;;;;;;;0.63;0.32;;;12.90;99.90;;;;;;4986219;28;20542;-94
2021/06/25 05:25:12;;;;;;;0.93;0.60;;;13.00;99.90;;;;;;4986344;28;20025;-95
2021/06/25 05:27:38;;;;;;;0.40;0.40;;;12.90;99.90;;;;;;4989747;28;20080;-95
2021/06/25 05:30:06;;;;;;;0.68;0.50;;;13.00;99.90;;;;;;4993348;28;20030;-95
2021/06/25 05:32:40;;;;;;;0.95;0.45;;;13.00;99.90;;;;;;4993507;28;20053;-96
2021/06/25 05:35:08;;;;;;;0.40;0.40;;;13.00;99.90;;;;;;4965904;28;20034;-96
2021/06/25 05:37:34;;;;;;;0.98;0.70;;;12.90;99.90;;;;;;4994694;28;20530;-95
2021/06/25 05:40:03;;;;;;;0.90;0.73;;;12.90;99.90;;;;;;4962296;28;20072;-94
2021/06/25 05:42:29;;;;;;;0.90;0.77;;;12.90;99.90;;;;;;4990994;28;20037;-96
2021/06/25 05:44:57;;;;;;;1.88;0.70;;;12.90;99.90;;;;;;4976609;28;20045;-95
2021/06/25 05:47:23;;;;;;;0.90;0.60;;;12.80;99.90;;;;;;4989884;28;20030;-95
2021/06/25 05:49:49;;;;;;;1.00;0.70;;;12.80;99.90;;;;;;4992714;28;20089;-95
2021/06/25 05:52:15;;;;;;;1.33;0.73;;;12.80;99.90;;;;;;4987337;28;20084;-95
2021/06/25 05:54:41;;;;;;;2.17;0.90;;;12.70;99.90;;;;;;4985898;28;20121;-95
2021/06/25 05:57:07;;;;;;;0.93;0.80;;;12.70;99.90;;;;;;4974220;28;20034;-95
2021/06/25 05:59:34;;;;;;;2.42;0.98;;;12.70;99.90;;;;;;4969115;28;20023;-95
2021/06/25 06:01:59;;;;;;;3.78;1.38;;;12.70;99.90;;;;;;4972796;28;20027;-95
2021/06/25 06:04:31;;;;;;;1.98;1.15;;;12.70;99.90;;;;;;4979276;28;20029;-95
2021/06/25 06:06:57;;;;;;;3.35;1.48;;;12.60;99.90;;;;;;4959026;28;20046;-96
2021/06/25 06:09:24;;;;;;;2.00;1.40;;;12.60;99.90;;;;;;4983698;28;20031;-96
2021/06/25 06:11:50;;;;;;;3.92;1.85;;;12.60;99.90;;;;;;4983035;28;20027;-96
2021/06/25 11:37:04;;;;;;;0.40;0.40;;;16.70;99.90;;;;;;5346101;23;20050;-94
2021/06/25 11:39:34;;;;;;;1.17;0.40;;;16.80;99.90;;;;;;5003170;28;20625;-95
2021/06/25 11:47:46;;;;;;;1.90;0.60;;;17.00;99.90;;;;;;4933410;29;20048;-94
2021/06/25 11:50:19;;;;;;;0.90;0.50;;;17.10;99.90;;;;;;4906733;29;20296;-93
2021/06/25 11:52:50;;;;;;;0.70;0.60;;;17.20;99.90;;;;;;4938173;29;20091;-93
2021/06/25 11:55:22;;;;;;;2.00;0.60;;;17.30;99.90;;;;;;4914933;29;20512;-95
2021/06/25 11:57:47;;;;;;;0.95;0.47;;;17.30;99.90;;;;;;4928157;29;20024;-94
2021/06/25 12:00:20;;;;;;;0.68;0.40;;;17.40;99.90;;;;;;4923476;29;20028;-95
2021/06/25 12:02:48;;;;;;;1.40;0.63;;;17.40;99.90;;;;;;4914323;29;20024;-94
2021/06/25 12:05:19;;;;;;;0.65;0.50;;;17.40;99.90;;;;;;4923664;29;20046;-93
2021/06/25 12:07:59;;;;;;;1.02;0.50;;;17.40;99.90;;;;;;4946924;29;20039;-94
2021/06/25 12:10:24;;;;;;;0.55;0.50;;;17.50;99.90;;;;;;4947675;29;20040;-95
2021/06/25 12:12:57;;;;;;;1.00;0.50;;;17.60;99.90;;;;;;4925045;29;20034;-94
2021/06/25 12:15:24;;;;;;;1.17;0.50;;;17.60;99.90;;;;;;4923199;29;20023;-95
2021/06/25 12:17:52;;;;;;;1.05;0.43;;;17.70;99.90;;;;;;4923362;29;20023;-94
2021/06/25 12:20:27;;;;;;;0.68;0.50;;;17.70;99.90;;;;;;4940771;29;20024;-94
2021/06/25 12:22:56;;;;;;;0.40;0.40;;;17.60;99.30;;;;;;4942105;29;20023;-93
2021/06/25 12:25:45;;;;;;;0.93;0.50;;;17.60;99.50;;;;;;4939045;29;20032;-94
2021/06/25 12:28:14;;;;;;;0.47;0.47;;;17.60;99.50;;;;;;4922147;29;20042;-94
2021/06/25 12:30:50;;;;;;;0.32;0.32;;;17.50;99.20;;;;;;4940122;29;20485;-95
2021/06/25 12:33:20;;;;;;;0.40;0.40;;;17.50;99.60;;;;;;4938825;29;20079;-93
2021/06/25 12:35:49;;;;;;;3.65;0.50;;;17.50;99.70;;;;;;4923368;29;20028;-94
2021/06/25 12:38:20;;;;;;;1.42;0.60;;;17.40;99.60;;;;;;4940918;29;20039;-93
2021/06/25 12:40:58;;;;;;;0.55;0.45;;;17.50;99.60;;;;;;4924474;29;20032;-94
2021/06/25 12:43:28;;;;;;;0.73;0.50;;;17.70;99.70;;;;;;4925270;29;20024;-93
2021/06/25 12:46:13;;;;;;;0.90;0.60;;;18.00;99.00;;;;;;4925652;29;20580;-93
2021/06/25 12:48:50;;;;;;;1.23;0.45;;;18.10;98.00;;;;;;4923434;29;20067;-94
2021/06/25 12:51:28;;;;;;;0.82;0.40;;;18.20;97.60;;;;;;4940449;29;20027;-94
2021/06/25 12:53:58;;;;;;;0.60;0.60;;;18.10;97.70;;;;;;4926745;29;20478;-94
2021/06/25 12:56:44;;;;;;;;;;;18.10;97.40;;;;;;4928215;29;20023;-93
2021/06/25 12:59:10;;;;;;;1.92;0.60;;;18.00;96.90;;;;;;4945342;29;19935;-93
2021/06/25 13:01:40;;;;;;;0.57;0.43;;;17.80;96.80;;;;;;4929926;29;20071;-93
2021/06/25 13:04:42;;;;;;;0.40;0.40;;;17.70;97.30;;;;;;4946233;29;20114;-93
2021/06/25 13:07:08;;;;;;;0.88;0.50;;;17.60;97.70;;;;;;4870609;29;20033;-94
2021/06/25 13:09:37;;;;;;;1.48;0.50;;;17.70;98.00;;;;;;4856409;29;20085;-95
2021/06/25 13:12:22;;;;;;;0.80;0.53;;;17.80;98.30;;;;;;4854583;29;20041;-94
2021/06/25 13:14:55;;;;;;;0.68;0.52;;;17.90;98.20;;;;;;4851989;29;20037;-95
2021/06/25 13:17:24;;;;;;;2.38;0.85;;;18.10;98.50;;;;;;4851533;29;20041;-93
2021/06/25 13:20:02;;;;;;;2.33;0.73;;;18.30;97.70;;;;;;4851558;29;20401;-95
2021/06/25 13:22:40;;;;;;;1.20;0.70;;;18.40;97.80;;;;;;4855773;29;20033;-95
2021/06/25 13:25:33;;;;;;;1.58;0.60;;;18.50;96.60;;;;;;4860496;29;20096;-93
2021/06/25 13:27:59;;;;;;;1.13;0.70;;;18.30;96.30;;;;;;4853492;29;20041;-93
2021/06/25 13:30:27;;;;;;;1.55;0.85;;;18.20;96.70;;;;;;4854722;29;20045;-93
2021/06/25 13:33:01;;;;;;;2.35;0.80;;;18.00;96.90;;;;;;4852161;29;20111;-93
2021/06/25 13:35:46;;;;;;;0.73;0.70;;;17.90;97.10;;;;;;4870208;29;20045;-93
2021/06/25 13:38:21;;;;;;;2.70;0.88;;;17.90;97.30;;;;;;4856360;29;20025;-93
2021/06/25 13:41:01;;;;;;;0.93;0.50;;;17.90;97.30;;;;;;4899942;29;20159;-94
2021/06/25 13:43:27;;;;;;;4.47;0.80;;;17.90;97.00;;;;;;4931305;29;20020;-95
2021/06/25 13:46:06;;;;;;;1.00;0.70;;;17.80;96.90;;;;;;4929334;29;20066;-92
2021/06/25 13:48:32;;;;;;;0.85;0.50;;;17.70;97.10;;;;;;4927795;29;20035;-93
2021/06/25 13:51:03;;;;;;;1.05;0.52;;;17.70;97.10;;;;;;4916749;29;20052;-95
2021/06/25 13:53:31;;;;;;;1.27;0.70;;;17.40;96.40;;;;;;4928835;29;20028;-92
2021/06/25 13:56:12;;;;;;;2.33;0.93;;;17.20;96.30;;;;;;4931393;29;20043;-94
2021/06/25 13:59:21;;;;;;;5.18;0.88;;;17.00;96.40;;;;;;4930590;29;20500;-94
2021/06/25 14:01:49;;;;;;;3.85;0.70;;;16.90;97.00;;;;;;4923786;29;20036;-95
2021/06/25 14:04:21;;;;;;;2.47;0.90;;;16.90;97.20;;;;;;4910934;29;20036;-95
2021/06/25 14:06:53;;;;;;;1.25;0.77;;;16.80;97.40;;;;;;4910063;29;20024;-94
2021/06/25 14:09:32;;;;;;;1.48;0.70;;;16.90;97.50;;;;;;4911039;29;20040;-94
2021/06/25 14:12:15;;;;;;;1.27;0.70;;;16.80;97.70;;;;;;4910579;29;20048;-93
2021/06/25 14:14:48;;;;;;;1.75;0.85;;;16.80;97.70;;;;;;4909835;29;20470;-96
2021/06/25 14:17:14;;;;;;;1.50;0.70;;;16.80;97.70;;;;;;4909262;29;20020;-94
2021/06/25 14:19:40;;;;;;;1.38;0.82;;;16.70;97.70;;;;;;4913666;29;20060;-92
2021/06/25 14:22:06;;;;;;;1.60;0.93;;;16.70;97.60;;;;;;4914303;29;20486;-94
2021/06/25 14:24:32;;;;;;;1.30;0.50;;;16.60;97.70;;;;;;4906792;29;20043;-94
2021/06/25 14:27:00;;;;;;;1.05;0.60;;;16.60;97.60;;;;;;4926574;29;20485;-91
2021/06/25 14:29:26;;;;;;;2.25;0.60;;;16.60;97.40;;;;;;4908211;29;20623;-92
2021/06/25 14:31:52;;;;;;;1.88;0.80;;;16.70;97.40;;;;;;4909038;29;20486;-93
2021/06/25 14:34:18;;;;;;;2.05;0.70;;;17.00;97.00;;;;;;4908924;29;20033;-92
2021/06/25 14:36:46;;;;;;;0.68;0.55;;;17.30;96.60;;;;;;4907894;29;20039;-93
2021/06/25 14:39:12;;;;;;;2.45;0.90;;;17.60;96.30;;;;;;4902237;29;20093;-92
2021/06/25 14:41:38;;;;;;;1.20;0.60;;;17.80;95.60;;;;;;4930047;29;20027;-92
2021/06/25 14:44:04;;;;;;;3.05;0.85;;;17.80;94.90;;;;;;4929487;29;20023;-93
2021/06/25 14:46:30;;;;;;;1.58;0.70;;;17.70;94.50;;;;;;4927678;29;20044;-92
2021/06/25 14:48:55;;;;;;;1.55;0.63;;;17.50;94.50;;;;;;4929269;29;20501;-92
2021/06/25 14:51:22;;;;;;;2.83;0.90;;;17.40;94.60;;;;;;4927806;29;20059;-91
2021/06/25 14:53:48;;;;;;;2.63;0.60;;;17.20;94.70;;;;;;4920429;29;20032;-91
2021/06/25 14:56:15;;;;;;;1.23;0.68;;;17.10;94.90;;;;;;4916847;29;20034;-92
2021/06/25 14:58:40;;;;;;;0.57;0.40;;;17.10;94.90;;;;;;4920489;29;20040;-92
2021/06/25 15:01:06;;;;;;;1.38;0.80;;;17.00;94.90;;;;;;4915364;29;20020;-92
2021/06/25 15:03:34;;;;;;;0.90;0.68;;;16.90;95.10;;;;;;4949598;29;20036;-93
2021/06/25 15:05:59;;;;;;;0.60;0.60;;;16.80;95.40;;;;;;4918484;29;20028;-95
2021/06/25 15:08:25;;;;;;;2.95;0.95;;;16.70;95.80;;;;;;4924390;29;20078;-92
2021/06/25 15:10:52;;;;;;;2.67;0.80;;;16.50;96.10;;;;;;4916334;29;20058;-94
2021/06/25 15:13:18;;;;;;;1.58;0.90;;;16.40;96.60;;;;;;4926538;29;20051;-93
2021/06/25 15:15:47;;;;;;;1.95;0.77;;;16.30;97.00;;;;;;4925340;29;20023;-93
2021/06/25 15:18:13;;;;;;;1.08;0.63;;;16.20;97.60;;;;;;4928011;29;20066;-93
2021/06/25 15:20:38;;;;;;;2.75;0.82;;;16.20;98.00;;;;;;4928026;29;20397;-93
2021/06/25 15:23:05;;;;;;;1.60;0.75;;;16.20;98.30;;;;;;4928139;29;20052;-92
2021/06/25 15:25:31;;;;;;;2.42;0.77;;;16.20;98.30;;;;;;4918549;29;20024;-93
2021/06/25 15:27:57;;;;;;;0.77;0.73;;;16.10;98.30;;;;;;4945542;28;20032;-92
2021/06/25 15:30:23;;;;;;;1.25;0.70;;;16.00;98.50;;;;;;4914548;29;20034;-94
2021/06/25 15:32:52;;;;;;;2.33;0.70;;;16.00;98.80;;;;;;4934051;29;20035;-93
2021/06/25 15:35:18;;;;;;;1.73;0.98;;;15.90;99.00;;;;;;4922004;29;20062;-93
2021/06/25 15:37:44;;;;;;;3.10;0.85;;;15.70;99.30;;;;;;4959066;29;20063;-93
2021/06/25 15:40:11;;;;;;;1.67;0.63;;;15.70;99.60;;;;;;4926777;29;20031;-93
2021/06/25 15:42:37;;;;;;;1.48;0.80;;;15.60;99.90;;;;;;4926823;29;20038;-93
2021/06/25 15:45:05;;;;;;;2.05;0.80;;;15.60;99.90;;;;;;4908923;29;20076;-92
2021/06/25 15:47:31;;;;;;;1.15;0.75;;;15.60;99.90;;;;;;4921036;29;20051;-93
2021/06/25 15:49:58;;;;;;;0.90;0.70;;;15.60;99.90;;;;;;4921198;29;20087;-93
2021/06/25 15:52:24;;;;;;;1.55;0.90;;;15.50;99.90;;;;;;4916590;29;20031;-93
2021/06/25 15:54:50;;;;;;;1.73;0.90;;;15.40;99.90;;;;;;4926958;29;20138;-92
2021/06/25 15:57:15;;;;;;;2.40;1.30;;;15.40;99.90;;;;;;4927142;29;20172;-92
2021/06/25 15:59:41;;;;;;;0.88;0.73;;;15.30;99.90;;;;;;4932585;29;20107;-92
2021/06/25 16:02:08;;;;;;;1.27;0.70;;;15.20;99.90;;;;;;4926947;29;20130;-92
2021/06/25 16:04:34;;;;;;;1.48;0.90;;;15.20;99.90;;;;;;4925698;29;20024;-92
2021/06/25 16:07:00;;;;;;;4.28;0.82;;;15.10;99.90;;;;;;4924698;29;20043;-92
2021/06/25 16:09:37;;;;;;;1.17;0.68;;;15.00;99.90;;;;;;4941599;29;20040;-92
2021/06/25 16:12:04;;;;;;;1.83;0.82;;;15.00;99.90;;;;;;4925219;29;20511;-92
2021/06/25 16:14:30;;;;;;;1.83;0.70;;;15.00;99.90;;;;;;4924319;29;20024;-91
2021/06/25 16:16:56;;;;;;;3.25;1.00;;;15.00;99.90;;;;;;4926731;29;20031;-92
2021/06/25 16:19:22;;;;;;;2.70;0.70;;;15.10;99.90;;;;;;4925251;29;20023;-92
2021/06/25 16:21:50;;;;;;;4.15;1.13;;;15.20;99.90;;;;;;4941653;29;20080;-92
2021/06/25 16:24:18;;;;;;;2.75;0.77;;;15.40;99.90;;;;;;4925071;29;20062;-92
2021/06/25 16:26:44;;;;;;;1.13;0.90;;;15.40;99.90;;;;;;4929045;29;20462;-91
2021/06/25 16:29:10;;;;;;;3.50;0.80;;;15.30;99.90;;;;;;4928645;29;20039;-92
2021/06/25 16:31:36;;;;;;;1.00;0.70;;;15.20;99.90;;;;;;4927667;29;20047;-91
2021/06/25 16:34:06;;;;;;;3.83;1.00;;;15.20;99.90;;;;;;4925701;29;20023;-90
2021/06/25 16:36:36;;;;;;;1.25;0.82;;;15.10;99.90;;;;;;4940969;29;20032;-93
2021/06/25 16:39:04;;;;;;;4.38;1.20;;;14.90;99.90;;;;;;4944717;29;20032;-91
2021/06/25 16:41:30;;;;;;;4.35;1.45;;;14.80;99.90;;;;;;4927869;29;20031;-92
2021/06/25 16:43:55;;;;;;;3.45;1.35;;;14.70;99.90;;;;;;4928389;29;20032;-92
2021/06/25 16:46:21;;;;;;;1.02;0.80;;;14.60;99.90;;;;;;4927460;29;20047;-91
2021/06/25 16:48:47;;;;;;;1.35;0.85;;;14.50;99.90;;;;;;4927879;29;20056;-92
2021/06/25 16:51:12;;;;;;;2.90;1.20;;;14.30;99.90;;;;;;4927903;29;20067;-91
2021/06/25 16:53:41;;;;;;;2.85;1.25;;;14.30;99.90;;;;;;4942692;29;20027;-92
2021/06/25 16:56:09;;;;;;;2.42;1.38;;;14.10;99.90;;;;;;4927113;29;20027;-91
2021/06/25 16:58:35;;;;;;;5.72;0.98;;;14.10;99.90;;;;;;4943010;29;20120;-92
2021/06/25 17:01:01;;;;;;;7.45;1.20;;;14.00;99.90;;;;;;4927448;29;20027;-92
2021/06/25 17:03:27;;;;;;;1.33;1.00;;;13.90;99.90;;;;;;4927956;29;20039;-92
2021/06/25 17:05:53;;;;;;;3.13;1.10;;;13.90;99.90;;;;;;4928211;29;20047;-92
2021/06/25 17:08:19;;;;;;;3.97;1.40;;;13.80;99.90;;;;;;4927494;29;20458;-92
2021/06/25 17:10:51;;;;;;;2.10;1.23;;;13.90;99.90;;;;;;4927340;29;20056;-93
2021/06/25 17:13:16;;;;;;;2.22;0.93;;;13.90;99.90;;;;;;4944720;29;20031;-93
2021/06/25 17:15:43;;;;;;;2.55;1.25;;;13.90;99.90;;;;;;4928098;29;20046;-94
2021/06/25 17:18:11;;;;;;;3.15;1.23;;;14.00;99.90;;;;;;4928312;29;20448;-92
2021/06/25 17:20:43;;;;;;;4.72;1.33;;;13.90;99.90;;;;;;4926406;29;20497;-92
2021/06/25 17:23:13;;;;;;;5.28;1.35;;;13.90;99.90;;;;;;4925793;29;20027;-92
2021/06/25 17:25:42;;;;;;;4.45;1.33;;;13.80;99.90;;;;;;4926109;29;20432;-93
2021/06/25 17:28:14;;;;;;;5.53;1.23;;;13.80;99.90;;;;;;4926993;29;20096;-91
2021/06/25 17:30:41;;;;;;;3.58;1.30;;;13.80;99.90;;;;;;4942941;29;20027;-91
2021/06/25 17:33:06;;;;;;;5.22;1.38;;;13.70;99.90;;;;;;4925142;29;20059;-93
2021/06/25 17:35:33;;;;;;;4.18;1.42;;;13.70;99.90;;;;;;4924745;29;20481;-92
2021/06/25 17:37:59;;;;;;;3.78;1.30;;;13.60;99.90;;;;;;4939523;29;20023;-91
2021/06/25 17:40:28;;;;;;;6.80;1.63;;;13.50;99.90;;;;;;4925380;29;20119;-91
2021/06/25 17:42:54;;;;;;;4.82;1.20;;;13.40;99.90;;;;;;4926203;29;20397;-92
2021/06/25 17:45:20;;;;;;;9.20;1.83;;;13.30;99.90;;;;;;4922691;29;20090;-91
2021/06/25 17:47:46;;;;;;;2.80;1.40;;;13.40;99.90;;;;;;4923055;29;20043;-92
2021/06/25 17:50:16;;;;;;;4.18;1.45;;;13.30;99.90;;;;;;4939965;29;20115;-91
2021/06/25 17:52:43;;;;;;;6.53;1.88;;;13.20;99.90;;;;;;4923177;29;20434;-92
2021/06/25 17:55:12;;;;;;;4.88;1.80;;;13.20;99.90;;;;;;4941341;29;20032;-92
2021/06/25 17:57:45;;;;;;;4.38;1.50;;;13.20;99.90;;;;;;4951509;29;20023;-93
2021/06/25 18:00:18;;;;;;;2.75;1.40;;;13.20;99.90;;;;;;4935271;29;20043;-92
2021/06/25 18:02:45;;;;;;;7.05;1.60;;;13.10;99.90;;;;;;4934682;29;20106;-94
2021/06/25 18:05:17;;;;;;;4.25;1.50;;;13.10;99.90;;;;;;4933089;29;20039;-93
2021/06/25 18:07:45;;;;;;;2.78;1.60;;;13.20;99.90;;;;;;4933574;29;20027;-93
2021/06/25 18:10:12;;;;;;;3.97;1.70;;;13.20;99.90;;;;;;4930316;29;20047;-92
2021/06/25 18:12:41;;;;;;;6.07;1.70;;;13.20;99.90;;;;;;4933636;29;20036;-91
2021/06/25 18:15:11;;;;;;;5.03;2.00;;;13.20;99.90;;;;;;4933915;29;20493;-92
2021/06/25 18:17:40;;;;;;;4.07;1.80;;;13.20;99.90;;;;;;4939825;29;20022;-91
2021/06/25 18:20:08;;;;;;;3.95;1.65;;;13.10;99.90;;;;;;4934200;29;20063;-92
2021/06/25 18:22:36;;;;;;;5.93;2.08;;;13.10;99.90;;;;;;4932164;29;20019;-93
2021/06/25 18:25:08;;;;;;;2.92;1.60;;;13.00;99.90;;;;;;4934041;29;20042;-93
2021/06/25 18:27:34;;;;;;;4.40;1.55;;;13.00;99.90;;;;;;4932153;29;20023;-93
2021/06/25 18:30:00;;;;;;;6.93;1.50;;;12.90;99.90;;;;;;4932285;29;20050;-92
2021/06/25 18:32:26;;;;;;;5.47;2.03;;;12.90;99.90;;;;;;4930459;29;20035;-92
2021/06/25 18:34:52;;;;;;;6.43;1.73;;;12.80;99.90;;;;;;4929202;29;20031;-92
2021/06/25 18:37:18;;;;;;;5.00;2.05;;;12.80;99.90;;;;;;4930770;29;20028;-92
2021/06/25 18:39:44;;;;;;;7.00;1.90;;;12.70;99.90;;;;;;4933040;29;20047;-92
2021/06/25 18:42:10;;;;;;;7.50;1.77;;;12.70;99.90;;;;;;4930241;29;20031;-92
2021/06/25 18:44:35;;;;;;;4.20;1.45;;;12.60;99.90;;;;;;4930453;29;20042;-91
2021/06/25 18:47:05;;;;;;;5.20;1.85;;;12.60;99.90;;;;;;4931567;29;20043;-94
2021/06/25 18:49:31;;;;;;;3.47;1.40;;;12.60;99.90;;;;;;4926671;29;20524;-94
2021/06/25 18:51:57;;;;;;;8.10;1.60;;;12.60;99.90;;;;;;4924839;29;20032;-94
2021/06/25 18:54:22;;;;;;;8.13;1.83;;;12.50;99.90;;;;;;4927534;29;20055;-94
2021/06/25 18:56:49;;;;;;;10.15;1.80;;;12.50;99.90;;;;;;4928145;29;20020;-93
2021/06/25 18:59:16;;;;;;;6.80;2.20;;;12.40;99.90;;;;;;4918961;29;20338;-95
2021/06/25 19:01:42;;;;;;;8.43;2.35;;;12.40;99.90;;;;;;4915416;29;20059;-93
2021/06/25 19:04:16;;;;;;;7.15;2.40;;;12.40;99.90;;;;;;4927521;29;20020;-93
2021/06/25 19:06:42;;;;;;;5.45;1.88;;;12.30;99.90;;;;;;4932627;29;20126;-95
2021/06/25 19:09:09;;;;;;;7.00;2.97;;;12.30;99.90;;;;;;4936381;29;20036;-95
2021/06/25 19:11:35;;;;;;;7.63;2.70;;;12.30;99.90;;;;;;4927637;29;20028;-96
2021/06/25 19:14:02;;;;;;;6.68;2.20;;;12.30;99.90;;;;;;4939132;29;20056;-95
2021/06/25 19:16:27;;;;;;;10.35;2.40;;;12.30;99.90;;;;;;4925088;29;20028;-94
2021/06/25 19:18:53;;;;;;;5.57;1.98;;;12.20;99.90;;;;;;4922382;29;20059;-95
2021/06/25 19:21:19;;;;;;;8.32;2.17;;;12.20;99.90;;;;;;4919689;29;20028;-95
2021/06/25 19:23:46;;;;;;;7.85;1.80;;;12.20;99.90;;;;;;4917419;29;20099;-95
2021/06/25 19:26:13;;;;;;;9.02;3.15;;;12.10;99.90;;;;;;4926599;29;20027;-95
2021/06/25 19:28:41;;;;;;;11.82;2.53;;;12.20;99.90;;;;;;4933835;29;20123;-95
2021/06/25 19:31:06;;;;;;;12.00;3.00;;;12.10;99.90;;;;;;4939122;29;20060;-94
2021/06/25 19:33:32;;;;;;;5.40;1.88;;;12.10;99.90;;;;;;4918915;29;20039;-94
2021/06/25 19:35:58;;;;;;;5.82;2.33;;;12.10;99.90;;;;;;4923776;29;20031;-95
2021/06/25 19:38:24;;;;;;;6.82;2.50;;;12.10;99.90;;;;;;4923977;29;20418;-95
2021/06/25 19:40:50;;;;;;;10.35;2.63;;;12.10;99.90;;;;;;4925384;29;20357;-95
2021/06/25 19:43:16;;;;;;;12.50;3.08;;;12.00;99.90;;;;;;4918409;29;20031;-95
2021/06/25 19:45:43;;;;;;;12.13;2.83;;;12.00;99.90;;;;;;4924172;29;20051;-95
2021/06/25 19:48:09;;;;;;;7.45;2.47;;;11.90;99.90;;;;;;4917254;29;20039;-94
2021/06/25 19:50:35;;;;;;;9.55;3.05;;;12.00;99.90;;;;;;4917927;29;20030;-94
2021/06/25 19:53:01;;;;;;;9.30;2.28;;;12.00;99.90;;;;;;4946215;28;20114;-95
2021/06/25 19:55:27;;;;;;;10.43;2.67;;;12.00;99.90;;;;;;4916997;29;20060;-96
2021/06/25 19:57:52;;;;;;;7.93;3.00;;;12.00;99.90;;;;;;4908102;29;20024;-95
2021/06/25 20:00:18;;;;;;;6.10;2.70;;;11.90;99.90;;;;;;4922550;29;20091;-96
2021/06/25 20:02:44;;;;;;;8.70;2.85;;;11.90;99.90;;;;;;4931352;29;20028;-95
2021/06/25 20:05:11;;;;;;;9.95;2.72;;;12.00;99.90;;;;;;4934594;29;20035;-96
2021/06/25 20:07:37;;;;;;;9.95;2.45;;;12.00;99.90;;;;;;4956798;29;20032;-94
2021/06/25 20:10:05;;;;;;;10.05;2.95;;;12.00;99.90;;;;;;4926198;29;20040;-95
2021/06/25 20:12:32;;;;;;;10.80;2.70;;;11.90;99.90;;;;;;4918735;29;20028;-95
2021/06/25 20:14:59;;;;;;;14.80;3.00;;;11.90;99.90;;;;;;4950179;29;20008;-96
2021/06/25 20:17:37;;;;;;;13.88;2.97;;;11.90;99.90;;;;;;4930709;29;20035;-96
2021/06/25 20:20:05;;;;;;;13.50;3.10;;;11.90;99.90;;;;;;4914219;29;20092;-96
2021/06/25 20:22:31;;;;;;;15.18;3.50;;;11.90;99.90;;;;;;4949113;29;20117;-95
2021/06/25 20:25:00;;;;;;;14.95;3.50;;;11.90;99.90;;;;;;4930848;29;20016;-94
2021/06/25 20:27:26;;;;;;;11.68;2.83;;;11.90;99.90;;;;;;4933630;29;20020;-95
2021/06/25 20:29:58;;;;;;;10.57;2.80;;;11.80;99.90;;;;;;4928650;29;20036;-95
2021/06/25 20:32:25;;;;;;;11.50;3.38;;;11.80;99.90;;;;;;4937231;29;20039;-96
2021/06/25 20:34:52;;;;;;;8.43;2.70;;;11.80;99.90;;;;;;4927325;29;20032;-96
2021/06/25 20:37:25;;;;;;;13.75;3.40;;;11.80;99.90;;;;;;4936275;29;20036;-96
2021/06/25 20:39:51;;;;;;;9.35;2.45;;;11.80;99.90;;;;;;4937556;29;20071;-95
2021/06/25 20:42:21;;;;;;;17.95;3.47;;;11.80;99.90;;;;;;4913793;29;20044;-95
2021/06/25 21:14:07;;;;;;;11.73;2.78;;;11.70;99.90;;;;;;3997629;23;20311;-94
2021/06/25 21:16:37;;;;;;;15.40;3.83;;;11.70;99.90;;;;;;5034025;23;20050;-96
2021/06/25 21:21:40;;;;;;;12.50;3.65;;;11.70;99.90;;;;;;5080223;23;20064;-95
2021/06/25 21:24:13;;;;;;;12.77;3.13;;;11.80;99.90;;;;;;5035908;28;20041;-96
2021/06/25 21:29:32;;;;;;;9.75;3.10;;;11.70;99.90;;;;;;5050975;23;20058;-96
2021/06/25 21:32:12;;;;;;;12.15;3.25;;;11.70;99.90;;;;;;5031329;28;20020;-96
2021/06/25 21:34:39;;;;;;;12.60;3.28;;;11.70;99.90;;;;;;5013559;28;20026;-96
2021/06/25 21:37:07;;;;;;;10.52;2.60;;;11.70;99.90;;;;;;5005946;28;20030;-95
2021/06/25 21:39:32;;;;;;;8.43;2.90;;;11.70;99.90;;;;;;5023869;28;20022;-96
2021/06/25 22:13:32;;;;;;;11.65;2.97;;;11.50;99.90;;;;;;3447841;23;20337;-94